Time;durP1;ratioP1;P1;durP2;ratioP2;P2;SDS_P1;SDS_P2;PMS_P1;PMS_P2;Temp;Humidity;BMP_temperature;BMP_pressure;BME280_temperature;BME280_humidity;BME280_pressure;Samples;Min_cycle;Max_cycle;Signal;HPM_P1;HPM_P2
2022/05/26 00:02:23;;;;;;;33.80;10.18;;;14.40;99.90;;;;;;4923278;28;20070;-87
2022/05/26 00:04:49;;;;;;;31.73;9.85;;;14.40;99.90;;;;;;4930824;28;20047;-86
2022/05/26 00:07:15;;;;;;;29.20;8.45;;;14.40;99.90;;;;;;4941738;28;20030;-87
2022/05/26 00:09:42;;;;;;;36.50;8.80;;;14.40;99.90;;;;;;4923760;28;20046;-87
2022/05/26 00:12:11;;;;;;;30.85;8.85;;;14.40;99.90;;;;;;4929855;28;20066;-86
2022/05/26 00:14:39;;;;;;;32.88;7.80;;;14.40;99.90;;;;;;4924239;28;20754;-87
2022/05/26 00:17:06;;;;;;;36.28;8.90;;;14.40;99.90;;;;;;4929591;28;20066;-87
2022/05/26 00:19:32;;;;;;;36.75;9.05;;;14.30;99.90;;;;;;4924266;28;20039;-87
2022/05/26 00:21:58;;;;;;;30.65;8.38;;;14.30;99.90;;;;;;4939009;28;20043;-87
2022/05/26 00:24:24;;;;;;;36.65;9.20;;;14.30;99.90;;;;;;4939542;28;20045;-87
2022/05/26 00:26:50;;;;;;;40.33;9.13;;;14.30;99.90;;;;;;4938074;28;20083;-87
2022/05/26 00:29:16;;;;;;;38.58;8.50;;;14.30;99.90;;;;;;4930410;28;20035;-87
2022/05/26 00:31:42;;;;;;;41.50;9.40;;;14.30;99.90;;;;;;4928015;28;20481;-87
2022/05/26 00:34:08;;;;;;;41.60;9.70;;;14.30;99.90;;;;;;4955744;28;20078;-86
2022/05/26 00:36:44;;;;;;;41.65;9.60;;;14.20;99.90;;;;;;4928523;28;20065;-86
2022/05/26 00:39:19;;;;;;;36.70;9.20;;;14.20;99.90;;;;;;4894901;28;20042;-87
2022/05/26 00:41:56;;;;;;;34.85;8.80;;;14.20;99.90;;;;;;4927936;28;20122;-87
2022/05/26 00:44:22;;;;;;;36.08;8.95;;;14.20;99.90;;;;;;4926920;28;20038;-87
2022/05/26 00:47:01;;;;;;;35.40;8.70;;;14.20;99.90;;;;;;4940607;28;21159;-87
2022/05/26 00:50:02;;;;;;;39.60;9.23;;;14.20;99.90;;;;;;4942886;28;20067;-87
2022/05/26 00:52:42;;;;;;;37.38;8.75;;;14.20;99.90;;;;;;4927628;28;20395;-87
2022/05/26 00:55:33;;;;;;;31.90;9.05;;;14.20;99.90;;;;;;4926442;28;20493;-86
2022/05/26 00:58:07;;;;;;;33.97;7.93;;;14.20;99.90;;;;;;4941527;28;20050;-86
2022/05/26 01:00:36;;;;;;;35.72;7.63;;;14.20;99.90;;;;;;4927277;28;20136;-86
2022/05/26 01:03:13;;;;;;;38.50;8.82;;;14.20;99.90;;;;;;4955587;28;20043;-87
2022/05/26 01:05:51;;;;;;;36.05;8.02;;;14.20;99.90;;;;;;4926394;28;20035;-86
2022/05/26 01:08:39;;;;;;;34.65;7.93;;;14.20;99.90;;;;;;4926424;28;20097;-87
2022/05/26 01:11:07;;;;;;;34.08;9.30;;;14.20;99.90;;;;;;4943364;28;20121;-86
2022/05/26 01:13:49;;;;;;;35.83;9.10;;;14.20;99.90;;;;;;4929093;28;20490;-87
2022/05/26 01:16:30;;;;;;;33.80;9.27;;;14.20;99.90;;;;;;4948452;28;20038;-86
2022/05/26 01:19:41;;;;;;;38.30;10.02;;;14.20;99.90;;;;;;4925666;28;20062;-86
2022/05/26 01:22:26;;;;;;;31.60;8.80;;;14.20;99.90;;;;;;4928375;28;20042;-87
2022/05/26 01:25:22;;;;;;;27.13;7.80;;;14.20;99.90;;;;;;4946349;28;20055;-87
2022/05/26 01:28:33;;;;;;;29.92;7.93;;;14.20;99.90;;;;;;4925443;28;20031;-87
2022/05/26 01:31:33;;;;;;;31.15;8.23;;;14.20;99.90;;;;;;4941187;28;20094;-86
2022/05/26 01:33:59;;;;;;;30.73;8.68;;;14.20;99.90;;;;;;4956584;28;20035;-86
2022/05/26 01:36:36;;;;;;;34.92;9.00;;;14.20;99.90;;;;;;4927828;28;20078;-86
2022/05/26 01:39:10;;;;;;;35.67;8.27;;;14.20;99.90;;;;;;4941387;28;20034;-87
2022/05/26 01:41:35;;;;;;;;;;;14.20;99.90;;;;;;4932620;28;20067;-87
2022/05/26 01:44:19;;;;;;;26.38;6.80;;;14.20;99.90;;;;;;4942017;28;19922;-87
2022/05/26 01:46:45;;;;;;;23.65;5.68;;;14.20;99.90;;;;;;4940618;28;20047;-87
2022/05/26 01:49:23;;;;;;;31.88;7.07;;;14.20;99.90;;;;;;4927930;28;20038;-87
2022/05/26 01:52:01;;;;;;;21.63;6.00;;;14.20;99.90;;;;;;4954538;28;20078;-87
2022/05/26 01:54:40;;;;;;;21.88;6.40;;;14.20;99.90;;;;;;4935119;28;20441;-87
2022/05/26 01:57:30;;;;;;;27.23;6.43;;;14.20;99.90;;;;;;4935289;28;20053;-88
2022/05/26 02:00:03;;;;;;;23.50;6.20;;;14.20;99.90;;;;;;4947287;28;20093;-87
2022/05/26 02:02:36;;;;;;;24.77;6.10;;;14.20;99.90;;;;;;4943751;28;20562;-87
2022/05/26 02:05:09;;;;;;;20.95;6.10;;;14.20;99.90;;;;;;4926209;28;20362;-87
2022/05/26 02:08:01;;;;;;;25.95;6.05;;;14.20;99.90;;;;;;4930854;28;20043;-87
2022/05/26 02:10:34;;;;;;;17.88;5.07;;;14.20;99.90;;;;;;4935285;28;20410;-87
2022/05/26 02:13:14;;;;;;;17.87;5.33;;;14.10;99.90;;;;;;4956777;28;20134;-87
2022/05/26 02:15:47;;;;;;;16.73;6.07;;;14.10;99.90;;;;;;4930464;28;20472;-88
2022/05/26 02:18:27;;;;;;;21.90;6.18;;;14.10;99.90;;;;;;4947343;28;20050;-87
2022/05/26 02:20:58;;;;;;;18.50;3.97;;;14.10;99.90;;;;;;4933404;28;20050;-87
2022/05/26 02:23:32;;;;;;;13.90;4.28;;;14.00;99.90;;;;;;4934968;28;20129;-87
2022/05/26 02:26:00;;;;;;;16.55;4.45;;;14.10;99.90;;;;;;4934179;28;20046;-87
2022/05/26 02:28:26;;;;;;;16.35;4.72;;;14.00;99.90;;;;;;4926142;28;20039;-87
2022/05/26 02:30:55;;;;;;;12.98;3.63;;;14.00;99.90;;;;;;4915128;28;20090;-88
2022/05/26 02:33:22;;;;;;;11.50;3.22;;;13.90;99.90;;;;;;4945984;28;20166;-86
2022/05/26 02:35:52;;;;;;;20.05;3.80;;;14.00;99.90;;;;;;4913567;28;20042;-86
2022/05/26 02:38:22;;;;;;;16.00;3.72;;;13.90;99.90;;;;;;4934864;28;20058;-86
2022/05/26 02:40:48;;;;;;;11.07;3.22;;;13.90;99.90;;;;;;4950432;28;20062;-87
2022/05/26 02:43:21;;;;;;;15.50;3.90;;;13.90;99.90;;;;;;4967265;28;20147;-87
2022/05/26 02:46:13;;;;;;;12.30;3.45;;;13.80;99.90;;;;;;4948141;28;20074;-87
2022/05/26 02:48:51;;;;;;;11.88;3.45;;;13.80;99.90;;;;;;4933677;28;20070;-86
2022/05/26 02:51:39;;;;;;;13.65;3.30;;;13.70;99.90;;;;;;4929450;28;20359;-87
2022/05/26 02:54:21;;;;;;;12.13;3.22;;;13.70;99.90;;;;;;4930071;28;20042;-86
2022/05/26 02:57:02;;;;;;;12.48;3.17;;;13.70;99.90;;;;;;4931235;28;20065;-87
2022/05/26 02:59:56;;;;;;;18.58;3.30;;;13.60;99.90;;;;;;4947859;28;20383;-87
2022/05/26 03:02:29;;;;;;;9.73;2.47;;;13.60;99.90;;;;;;4930870;28;20285;-87
2022/05/26 03:05:07;;;;;;;18.17;3.25;;;13.50;99.90;;;;;;4942364;28;20141;-87
2022/05/26 03:07:35;;;;;;;9.85;2.55;;;13.50;99.90;;;;;;4948418;28;20082;-87
2022/05/26 03:10:04;;;;;;;10.48;2.10;;;13.40;99.90;;;;;;4930989;28;20707;-87
2022/05/26 03:12:38;;;;;;;7.57;2.67;;;13.40;99.90;;;;;;4932919;28;20062;-86
2022/05/26 03:15:06;;;;;;;8.07;1.90;;;13.40;99.90;;;;;;4920499;28;20046;-87
2022/05/26 03:17:35;;;;;;;7.97;2.22;;;13.30;99.90;;;;;;4932478;28;22632;-87
2022/05/26 03:20:01;;;;;;;8.23;1.83;;;13.30;99.90;;;;;;4916667;28;20047;-86
2022/05/26 03:22:27;;;;;;;10.73;2.03;;;13.30;99.90;;;;;;4931712;28;20043;-86
2022/05/26 03:24:53;;;;;;;9.50;1.90;;;13.20;99.90;;;;;;4915914;28;20039;-86
2022/05/26 03:27:19;;;;;;;8.48;2.05;;;13.20;99.90;;;;;;4912492;28;20038;-86
2022/05/26 03:29:45;;;;;;;8.27;2.33;;;13.20;99.90;;;;;;4909389;28;20041;-87
2022/05/26 03:32:11;;;;;;;9.30;1.88;;;13.20;99.90;;;;;;4933529;28;20401;-86
2022/05/26 03:43:01;;;;;;;5.60;2.10;;;13.20;99.90;;;;;;4929407;28;20051;-86
2022/05/26 03:45:28;;;;;;;6.75;1.85;;;13.20;99.90;;;;;;4929601;28;20090;-87
2022/05/26 03:47:57;;;;;;;9.25;2.65;;;13.20;99.90;;;;;;4916107;28;20038;-86
2022/05/26 03:50:23;;;;;;;9.93;2.53;;;13.20;99.90;;;;;;4946193;28;20580;-86
2022/05/26 03:52:48;;;;;;;10.65;2.13;;;13.20;99.90;;;;;;4926638;28;20121;-87
2022/05/26 03:55:14;;;;;;;11.43;2.30;;;13.20;99.90;;;;;;4913397;28;20494;-87
2022/05/26 03:57:42;;;;;;;6.47;1.75;;;13.10;99.90;;;;;;4929582;28;20369;-86
2022/05/26 04:00:09;;;;;;;9.00;1.83;;;13.10;99.90;;;;;;4930201;28;20077;-87
2022/05/26 04:02:36;;;;;;;9.15;2.40;;;13.10;99.90;;;;;;4933176;28;20073;-87
2022/05/26 04:05:02;;;;;;;7.03;1.67;;;13.20;99.90;;;;;;4931749;28;20039;-87
2022/05/26 04:07:27;;;;;;;7.15;1.63;;;13.10;99.90;;;;;;4928529;28;20047;-87
2022/05/26 04:09:53;;;;;;;6.25;1.50;;;13.20;99.90;;;;;;4913605;28;20065;-87
2022/05/26 04:12:22;;;;;;;9.65;2.00;;;13.20;99.90;;;;;;4929272;28;20053;-86
2022/05/26 04:14:48;;;;;;;9.07;1.52;;;13.10;99.90;;;;;;4946221;28;20436;-87
2022/05/26 04:17:14;;;;;;;7.20;1.88;;;13.10;99.90;;;;;;4922743;28;20035;-87
2022/05/26 04:19:43;;;;;;;7.10;2.00;;;13.10;99.90;;;;;;4930353;28;20414;-87
2022/05/26 04:22:15;;;;;;;12.77;2.55;;;13.10;99.90;;;;;;4940093;28;20053;-87
2022/05/26 04:24:42;;;;;;;7.00;1.92;;;13.10;99.90;;;;;;4957721;23;20046;-55
2022/05/26 04:27:08;;;;;;;9.02;2.38;;;13.10;99.90;;;;;;4955518;28;20073;-55
2022/05/26 04:29:35;;;;;;;8.88;2.00;;;13.10;99.90;;;;;;4954648;28;20375;-53
2022/05/26 04:32:01;;;;;;;6.78;1.60;;;13.00;99.90;;;;;;4941008;28;20405;-55
2022/05/26 04:34:27;;;;;;;10.38;1.83;;;13.00;99.90;;;;;;4949749;28;20045;-55
2022/05/26 04:36:53;;;;;;;9.95;2.95;;;13.00;99.90;;;;;;4932245;28;20077;-55
2022/05/26 04:39:19;;;;;;;9.02;2.25;;;13.00;99.90;;;;;;4947072;28;20520;-55
2022/05/26 04:41:45;;;;;;;9.65;1.92;;;13.10;99.90;;;;;;4947964;28;20043;-56
2022/05/26 04:44:12;;;;;;;10.05;1.50;;;13.10;99.90;;;;;;4952060;28;20425;-57
2022/05/26 04:46:38;;;;;;;7.50;1.58;;;13.10;99.90;;;;;;4937267;28;20141;-55
2022/05/26 04:49:05;;;;;;;7.30;1.85;;;13.10;99.90;;;;;;4952694;28;20486;-55
2022/05/26 04:51:31;;;;;;;10.57;1.50;;;13.10;99.90;;;;;;4942494;28;20093;-55
2022/05/26 04:53:57;;;;;;;9.88;2.50;;;13.20;99.90;;;;;;4950604;28;20039;-55
2022/05/26 04:56:23;;;;;;;8.98;1.98;;;13.20;99.90;;;;;;4950770;28;20053;-56
2022/05/26 04:58:52;;;;;;;7.45;1.48;;;13.20;99.90;;;;;;4950684;28;20387;-56
2022/05/26 05:01:19;;;;;;;11.45;1.95;;;13.30;99.90;;;;;;4949781;28;20047;-56
2022/05/26 05:03:46;;;;;;;5.38;1.40;;;13.30;99.90;;;;;;4950913;28;20648;-56
2022/05/26 05:06:16;;;;;;;9.43;1.73;;;13.30;99.90;;;;;;4966556;28;20042;-54
2022/05/26 05:08:43;;;;;;;8.75;1.92;;;13.40;99.90;;;;;;4945918;28;20069;-54
2022/05/26 05:11:12;;;;;;;9.68;1.92;;;13.40;99.90;;;;;;4947369;28;20046;-54
2022/05/26 05:13:39;;;;;;;9.15;2.10;;;13.40;99.90;;;;;;4951546;28;20133;-55
2022/05/26 05:16:10;;;;;;;10.73;2.30;;;13.50;99.90;;;;;;4957631;28;20458;-54
2022/05/26 05:18:36;;;;;;;8.77;1.80;;;13.50;99.90;;;;;;4933877;28;20047;-55
2022/05/26 05:21:07;;;;;;;11.60;2.00;;;13.60;99.90;;;;;;4953586;28;20866;-58
2022/05/26 05:23:37;;;;;;;7.75;1.58;;;13.70;99.90;;;;;;4963812;28;20299;-57
2022/05/26 05:26:04;;;;;;;6.95;1.90;;;13.70;99.90;;;;;;4952325;28;20271;-59
2022/05/26 05:28:37;;;;;;;7.50;1.80;;;13.80;99.90;;;;;;4937590;28;20502;-58
2022/05/26 05:31:07;;;;;;;5.28;1.42;;;13.90;99.90;;;;;;4960567;28;20521;-59
2022/05/26 05:33:49;;;;;;;8.30;1.75;;;13.90;99.90;;;;;;4948338;28;20068;-59
2022/05/26 05:36:25;;;;;;;9.85;1.73;;;14.00;99.90;;;;;;4946109;28;20496;-59
2022/05/26 05:38:51;;;;;;;7.43;1.58;;;14.10;99.90;;;;;;4952611;28;20398;-59
2022/05/26 05:41:20;;;;;;;5.40;1.52;;;14.10;99.90;;;;;;4930798;28;20039;-58
2022/05/26 05:43:45;;;;;;;9.48;1.98;;;14.20;99.90;;;;;;4942771;28;20074;-57
2022/05/26 05:46:11;;;;;;;6.90;1.70;;;14.30;99.90;;;;;;4948994;28;20046;-56
2022/05/26 05:48:37;;;;;;;10.52;1.52;;;14.40;99.90;;;;;;4948037;28;20053;-58
2022/05/26 05:51:04;;;;;;;9.40;2.67;;;14.50;99.90;;;;;;4932819;28;20206;-59
2022/05/26 05:53:30;;;;;;;7.63;1.58;;;14.50;99.90;;;;;;4953301;28;20574;-59
2022/05/26 05:55:55;;;;;;;8.52;1.80;;;14.60;99.90;;;;;;4954220;28;20039;-60
2022/05/26 05:58:21;;;;;;;8.23;1.88;;;14.60;99.90;;;;;;4934428;28;20533;-59
2022/05/26 06:00:47;;;;;;;9.88;1.67;;;14.70;99.90;;;;;;4953077;28;20047;-59
2022/05/26 06:03:13;;;;;;;13.15;1.85;;;14.80;99.90;;;;;;4945874;28;20055;-58
2022/05/26 06:05:39;;;;;;;8.93;1.48;;;14.90;99.90;;;;;;4949463;28;20563;-58
2022/05/26 06:08:05;;;;;;;7.00;1.45;;;14.90;99.90;;;;;;4946069;28;20043;-59
2022/05/26 06:10:32;;;;;;;4.43;1.45;;;15.00;99.90;;;;;;4937192;28;20077;-58
2022/05/26 06:12:58;;;;;;;6.38;1.42;;;15.10;99.90;;;;;;4946278;28;20050;-60
2022/05/26 06:15:24;;;;;;;7.10;1.50;;;15.10;99.90;;;;;;4948369;28;20439;-59
2022/05/26 06:17:50;;;;;;;4.85;1.40;;;15.20;99.90;;;;;;4949255;28;20074;-59
2022/05/26 06:20:16;;;;;;;15.73;2.17;;;15.30;99.90;;;;;;4961876;28;20073;-60
2022/05/26 06:22:47;;;;;;;8.95;1.73;;;15.20;99.90;;;;;;4961549;28;20690;-57
2022/05/26 06:25:14;;;;;;;5.25;1.48;;;15.30;99.90;;;;;;4949269;28;20564;-59
2022/05/26 06:30:26;;;;;;;7.00;1.98;;;15.30;99.90;;;;;;4951601;28;20647;-59
2022/05/26 06:38:26;;;;;;;9.27;1.73;;;15.40;99.90;;;;;;4950040;28;20062;-60
2022/05/26 06:40:52;;;;;;;8.60;1.63;;;15.40;99.90;;;;;;4960571;28;20042;-60
2022/05/26 06:43:19;;;;;;;11.18;2.00;;;15.30;99.90;;;;;;4947428;28;20054;-60
2022/05/26 06:45:47;;;;;;;8.30;1.50;;;15.30;99.90;;;;;;4947309;28;20049;-59
2022/05/26 06:48:14;;;;;;;6.53;1.83;;;15.40;99.90;;;;;;4954158;28;20042;-60
2022/05/26 06:50:40;;;;;;;6.32;1.20;;;15.50;99.90;;;;;;4953214;28;20094;-58
2022/05/26 06:53:07;;;;;;;8.38;1.77;;;15.50;99.90;;;;;;4922782;28;20047;-60
2022/05/26 06:55:33;;;;;;;11.30;1.75;;;15.40;99.90;;;;;;4941037;28;20046;-60
2022/05/26 06:57:59;;;;;;;9.50;1.60;;;15.50;99.90;;;;;;4906832;28;20053;-59
2022/05/26 07:00:25;;;;;;;5.30;1.30;;;15.50;99.90;;;;;;4942278;28;20155;-60
2022/05/26 07:02:54;;;;;;;6.13;1.30;;;15.50;99.90;;;;;;4922800;28;20047;-60
2022/05/26 07:05:19;;;;;;;10.32;2.03;;;15.50;99.90;;;;;;4937689;28;20043;-60
2022/05/26 07:07:45;;;;;;;6.05;1.48;;;15.60;99.90;;;;;;4934710;28;20498;-58
2022/05/26 07:10:13;;;;;;;6.03;1.35;;;15.50;99.90;;;;;;4940187;28;20313;-60
2022/05/26 07:12:40;;;;;;;5.30;1.35;;;15.60;99.90;;;;;;4942516;28;20059;-60
2022/05/26 07:15:07;;;;;;;6.53;1.63;;;15.60;99.90;;;;;;4943535;28;20057;-60
2022/05/26 07:17:33;;;;;;;10.20;2.22;;;15.70;99.90;;;;;;4941366;28;20051;-61
2022/05/26 07:19:59;;;;;;;6.97;1.40;;;15.80;99.90;;;;;;4951875;28;20043;-59
2022/05/26 07:22:24;;;;;;;8.70;1.83;;;15.70;99.90;;;;;;4939384;28;20043;-60
2022/05/26 07:24:51;;;;;;;8.32;1.70;;;15.70;99.90;;;;;;4956221;28;20042;-60
2022/05/26 07:27:17;;;;;;;13.48;1.88;;;15.70;99.90;;;;;;4925251;28;20043;-60
2022/05/26 07:29:43;;;;;;;10.10;1.88;;;15.70;99.90;;;;;;4956079;28;20031;-60
2022/05/26 07:32:09;;;;;;;7.43;1.10;;;15.70;99.90;;;;;;4942526;28;20066;-60
2022/05/26 07:34:34;;;;;;;11.48;2.40;;;15.80;99.90;;;;;;4950225;28;20387;-60
2022/05/26 07:42:34;;;;;;;8.10;1.23;;;15.90;99.90;;;;;;4949745;28;20059;-61
2022/05/26 07:45:01;;;;;;;8.15;1.45;;;16.00;99.90;;;;;;4936458;28;20069;-59
2022/05/26 07:47:27;;;;;;;10.48;1.48;;;16.20;99.90;;;;;;4964044;28;20047;-61
2022/05/26 07:49:54;;;;;;;6.20;1.52;;;16.30;99.90;;;;;;4967263;28;20302;-61
2022/05/26 07:52:21;;;;;;;6.93;1.13;;;16.30;99.90;;;;;;4959482;28;20042;-60
2022/05/26 07:54:47;;;;;;;6.90;1.40;;;16.40;99.90;;;;;;4962609;28;20049;-61
2022/05/26 07:57:18;;;;;;;5.88;1.17;;;16.30;99.90;;;;;;4965410;28;20114;-60
2022/05/26 07:59:43;;;;;;;6.40;1.42;;;16.20;99.90;;;;;;4960473;28;20070;-61
2022/05/26 08:02:09;;;;;;;4.90;1.15;;;16.10;99.90;;;;;;4945546;28;20750;-60
2022/05/26 08:04:35;;;;;;;4.40;1.30;;;16.20;99.90;;;;;;4969756;28;20512;-57
2022/05/26 08:07:02;;;;;;;5.43;1.48;;;16.10;99.90;;;;;;4958972;28;20045;-58
2022/05/26 08:09:27;;;;;;;7.03;1.60;;;16.20;99.90;;;;;;4964102;28;20597;-58
2022/05/26 08:11:53;;;;;;;7.50;1.55;;;16.00;99.90;;;;;;4956710;28;20121;-58
2022/05/26 08:14:19;;;;;;;9.25;1.75;;;16.20;99.90;;;;;;4946410;28;20053;-58
2022/05/26 08:16:45;;;;;;;9.10;1.95;;;16.20;99.90;;;;;;4958681;28;20046;-59
2022/05/26 08:19:11;;;;;;;6.20;1.40;;;16.30;99.90;;;;;;4948596;28;20670;-59
2022/05/26 08:21:37;;;;;;;5.78;1.30;;;16.40;99.90;;;;;;4947226;28;20043;-58
2022/05/26 08:24:04;;;;;;;5.10;1.83;;;16.40;99.90;;;;;;4957044;28;20042;-59
2022/05/26 08:26:30;;;;;;;6.53;1.50;;;16.40;99.90;;;;;;4946155;28;20031;-59
2022/05/26 08:28:57;;;;;;;6.00;1.20;;;16.50;99.90;;;;;;4946318;28;20042;-59
2022/05/26 08:31:23;;;;;;;7.13;1.63;;;16.40;99.90;;;;;;4957941;28;20502;-58
2022/05/26 08:33:49;;;;;;;5.10;1.08;;;16.40;99.90;;;;;;4923235;28;20031;-58
2022/05/26 08:36:20;;;;;;;5.53;1.08;;;16.40;99.90;;;;;;4956173;28;20031;-58
2022/05/26 08:38:46;;;;;;;4.53;1.25;;;16.50;99.90;;;;;;4959912;28;20042;-58
2022/05/26 08:41:21;;;;;;;5.30;0.90;;;16.50;99.90;;;;;;4945121;28;20077;-58
2022/05/26 08:43:55;;;;;;;5.20;1.00;;;16.60;99.90;;;;;;4961657;28;20046;-59
2022/05/26 08:46:21;;;;;;;5.07;1.10;;;16.80;99.90;;;;;;4953360;28;20034;-58
2022/05/26 08:49:10;;;;;;;4.45;1.48;;;16.90;99.90;;;;;;4961246;28;20057;-59
2022/05/26 08:51:55;;;;;;;4.47;1.35;;;16.90;99.60;;;;;;4964589;28;20130;-59
2022/05/26 08:54:27;;;;;;;5.82;1.30;;;17.10;99.80;;;;;;4954281;28;20085;-59
2022/05/26 08:56:55;;;;;;;5.50;1.00;;;17.40;99.90;;;;;;4945185;28;20091;-59
2022/05/26 08:59:28;;;;;;;4.18;0.90;;;17.50;98.70;;;;;;4952764;28;20047;-59
2022/05/26 09:01:56;;;;;;;4.68;1.02;;;17.40;98.30;;;;;;4956040;28;20083;-58
2022/05/26 09:04:22;;;;;;;5.30;1.45;;;17.50;98.70;;;;;;4967761;28;20542;-58
2022/05/26 09:15:15;;;;;;;6.35;1.13;;;18.00;97.80;;;;;;4953331;28;20441;-58
2022/05/26 09:17:41;;;;;;;6.28;1.30;;;18.20;97.80;;;;;;4954385;28;20046;-58
2022/05/26 09:20:30;;;;;;;4.28;1.05;;;18.10;97.20;;;;;;4933914;28;20653;-59
2022/05/26 09:23:15;;;;;;;3.88;1.25;;;18.00;96.20;;;;;;4974924;28;20166;-60
2022/05/26 09:25:51;;;;;;;4.15;0.95;;;18.00;96.90;;;;;;4941028;28;20185;-60
2022/05/26 09:28:45;;;;;;;6.13;2.00;;;18.10;97.10;;;;;;4963001;28;20129;-58
2022/05/26 09:31:32;;;;;;;5.45;1.42;;;18.30;96.60;;;;;;4968002;28;20462;-57
2022/05/26 09:34:18;;;;;;;7.10;1.63;;;18.40;96.80;;;;;;4953714;28;20106;-59
2022/05/26 09:37:02;;;;;;;5.07;1.52;;;18.10;94.80;;;;;;4951490;28;20406;-59
2022/05/26 09:39:41;;;;;;;4.05;1.20;;;18.10;96.10;;;;;;4955572;28;20051;-59
2022/05/26 09:42:28;;;;;;;5.18;1.00;;;18.40;97.20;;;;;;4954851;28;20047;-60
2022/05/26 09:45:12;;;;;;;4.75;1.13;;;18.60;97.00;;;;;;4950710;28;21237;-58
2022/05/26 09:47:54;;;;;;;6.03;1.33;;;18.60;96.70;;;;;;4958313;28;20043;-60
2022/05/26 09:50:52;;;;;;;4.30;1.00;;;18.40;96.50;;;;;;4947934;28;20070;-60
2022/05/26 09:53:35;;;;;;;6.78;1.45;;;18.50;95.70;;;;;;4947980;28;20117;-59
2022/05/26 09:56:01;;;;;;;4.10;0.90;;;18.70;96.50;;;;;;4943775;28;20050;-58
2022/05/26 09:58:29;;;;;;;5.10;1.40;;;18.80;96.30;;;;;;4940093;28;20039;-58
2022/05/26 10:00:58;;;;;;;3.63;1.35;;;18.80;96.80;;;;;;4957431;28;20047;-59
2022/05/26 10:04:01;;;;;;;4.90;1.30;;;18.60;97.00;;;;;;4936466;28;20046;-60
2022/05/26 10:06:39;;;;;;;4.53;1.10;;;18.30;97.10;;;;;;4931545;28;20054;-59
2022/05/26 10:09:33;;;;;;;5.95;1.80;;;18.00;97.70;;;;;;4941274;28;20050;-59
2022/05/26 10:12:23;;;;;;;5.82;1.50;;;17.90;98.10;;;;;;4939612;28;20051;-60
2022/05/26 10:15:15;;;;;;;6.68;1.35;;;17.90;99.00;;;;;;4926797;28;20058;-59
2022/05/26 10:17:54;;;;;;;6.00;1.48;;;18.10;98.90;;;;;;4943285;28;20039;-58
2022/05/26 10:20:43;;;;;;;5.68;1.38;;;18.20;99.40;;;;;;4949083;28;20042;-60
2022/05/26 10:23:47;;;;;;;5.55;1.48;;;18.10;98.80;;;;;;4973671;28;20074;-58
2022/05/26 10:26:43;;;;;;;5.35;1.52;;;18.00;99.00;;;;;;4969002;23;20169;-61
2022/05/26 10:29:24;;;;;;;5.45;1.63;;;17.80;98.50;;;;;;4984981;28;20033;-55
2022/05/26 10:32:14;;;;;;;7.22;2.17;;;17.80;98.30;;;;;;5000465;28;20057;-61
2022/05/26 10:34:58;;;;;;;3.72;1.23;;;17.90;98.80;;;;;;4986842;28;20066;-53
2022/05/26 10:37:50;;;;;;;7.10;1.77;;;17.90;99.20;;;;;;4966806;28;20162;-57
2022/05/26 10:40:31;;;;;;;4.85;1.48;;;18.00;98.80;;;;;;4953640;28;20321;-54
2022/05/26 10:43:23;;;;;;;5.93;1.52;;;17.90;98.40;;;;;;4957236;28;20631;-56
2022/05/26 10:45:52;;;;;;;6.53;1.63;;;17.90;99.60;;;;;;4965845;28;20038;-55
2022/05/26 10:48:25;;;;;;;4.63;1.52;;;17.90;99.50;;;;;;4965863;28;20560;-55
2022/05/26 10:51:02;;;;;;;7.38;1.95;;;18.10;99.40;;;;;;4976142;28;20393;-56
2022/05/26 10:53:58;;;;;;;7.20;1.85;;;18.50;99.50;;;;;;4957244;28;20129;-59
2022/05/26 10:56:39;;;;;;;6.13;1.88;;;18.70;99.20;;;;;;4958734;28;20183;-55
2022/05/26 10:59:13;;;;;;;7.20;2.10;;;18.90;99.30;;;;;;4959119;28;20059;-59
2022/05/26 11:01:58;;;;;;;6.63;1.92;;;19.10;99.00;;;;;;4994885;28;20057;-58
2022/05/26 11:04:40;;;;;;;4.70;1.83;;;19.40;98.80;;;;;;4974457;28;20125;-57
2022/05/26 11:07:12;;;;;;;8.32;2.60;;;19.70;99.00;;;;;;4970177;28;20073;-57
2022/05/26 11:10:16;;;;;;;7.47;1.70;;;19.70;98.10;;;;;;4972633;28;20034;-57
2022/05/26 11:13:01;;;;;;;7.68;1.67;;;19.60;97.60;;;;;;4967298;28;20053;-55
2022/05/26 11:18:48;;;;;;;9.82;2.00;;;19.50;98.20;;;;;;4982928;28;20077;-56
2022/05/26 11:21:18;;;;;;;6.47;2.25;;;19.60;98.60;;;;;;4991142;28;20057;-56
2022/05/26 11:23:44;;;;;;;7.32;2.20;;;19.80;98.50;;;;;;4973352;28;20051;-62
2022/05/26 11:26:24;;;;;;;5.40;1.77;;;19.70;98.10;;;;;;4990391;28;20084;-58
2022/05/26 11:28:57;;;;;;;5.65;2.10;;;19.60;97.60;;;;;;4967939;28;20035;-57
2022/05/26 11:37:36;;;;;;;11.10;2.80;;;19.60;98.60;;;;;;4980225;28;20050;-56
2022/05/26 11:40:08;;;;;;;8.00;1.95;;;19.60;98.10;;;;;;4974604;28;20046;-57
2022/05/26 11:42:51;;;;;;;9.70;1.92;;;19.80;97.80;;;;;;4963270;28;20097;-56
2022/05/26 11:45:29;;;;;;;4.20;1.50;;;20.00;96.80;;;;;;4955664;28;20104;-58
2022/05/26 11:48:03;;;;;;;8.70;2.00;;;20.20;95.70;;;;;;4959886;28;20185;-56
2022/05/26 11:50:48;;;;;;;7.82;2.28;;;20.20;96.10;;;;;;4957394;28;20133;-54
2022/05/26 11:53:34;;;;;;;9.48;2.03;;;20.00;95.30;;;;;;4951430;28;20892;-55
2022/05/26 11:56:23;;;;;;;7.53;1.52;;;19.90;96.20;;;;;;4960824;28;20053;-53
2022/05/26 11:59:21;;;;;;;8.07;2.17;;;19.90;96.60;;;;;;4976780;28;20043;-59
2022/05/26 12:02:07;;;;;;;6.38;2.30;;;19.40;97.10;;;;;;4948134;28;20061;-57
2022/05/26 12:04:39;;;;;;;6.03;2.25;;;19.20;97.80;;;;;;4962487;28;20038;-56
2022/05/26 12:07:26;;;;;;;7.50;2.05;;;19.30;97.20;;;;;;4980376;28;20430;-57
2022/05/26 12:10:00;;;;;;;5.47;1.60;;;18.80;96.30;;;;;;4978653;28;20038;-61
2022/05/26 12:12:25;;;;;;;;;;;18.90;97.90;;;;;;4964953;28;20569;-56
2022/05/26 12:14:54;;;;;;;5.85;1.70;;;18.90;97.40;;;;;;4970178;28;20364;-56
2022/05/26 12:17:49;;;;;;;7.10;2.20;;;18.90;97.80;;;;;;4986262;28;20084;-56
2022/05/26 12:20:15;;;;;;;6.88;2.00;;;18.70;98.00;;;;;;4979284;28;20046;-53
2022/05/26 12:22:47;;;;;;;6.03;2.30;;;18.60;98.40;;;;;;4977795;28;20038;-53
2022/05/26 12:25:22;;;;;;;7.25;2.50;;;18.60;98.60;;;;;;4980872;28;20117;-56
2022/05/26 12:27:57;;;;;;;8.10;1.88;;;18.70;98.60;;;;;;4970917;28;20042;-56
2022/05/26 12:30:44;;;;;;;6.38;2.10;;;18.50;98.20;;;;;;4980940;28;20030;-56
2022/05/26 12:33:19;;;;;;;9.30;2.10;;;18.60;98.50;;;;;;4983349;28;20457;-56
2022/05/26 12:36:16;;;;;;;6.35;2.10;;;18.60;97.90;;;;;;4980995;28;20101;-62
2022/05/26 12:38:53;;;;;;;7.13;2.92;;;18.40;98.70;;;;;;4971488;28;20121;-57
2022/05/26 12:41:23;;;;;;;7.75;2.20;;;18.50;99.00;;;;;;4969342;28;20049;-55
2022/05/26 12:44:26;;;;;;;4.03;1.40;;;18.70;98.70;;;;;;4983451;28;20108;-60
2022/05/26 12:47:10;;;;;;;6.72;1.77;;;18.90;97.40;;;;;;4977127;28;20134;-56
2022/05/26 12:50:01;;;;;;;5.60;1.70;;;19.00;97.90;;;;;;4985860;28;20500;-56
2022/05/26 12:52:32;;;;;;;8.95;2.03;;;18.70;97.50;;;;;;4971331;28;20058;-57
2022/05/26 12:55:19;;;;;;;7.47;1.60;;;18.60;96.90;;;;;;4980195;28;20038;-62
2022/05/26 12:57:54;;;;;;;9.50;1.75;;;18.40;97.30;;;;;;4975966;28;20039;-55
2022/05/26 13:00:36;;;;;;;3.95;1.73;;;18.30;97.50;;;;;;4990120;28;20038;-55
2022/05/26 13:03:06;;;;;;;7.65;2.00;;;18.20;97.90;;;;;;4978440;28;20057;-59
2022/05/26 13:05:44;;;;;;;8.02;1.92;;;18.30;98.00;;;;;;4987989;28;20044;-57
2022/05/26 13:08:18;;;;;;;10.95;3.17;;;18.30;98.30;;;;;;4981144;28;20042;-56
2022/05/26 13:10:46;;;;;;;4.88;1.63;;;18.40;98.50;;;;;;4964266;28;20125;-62
2022/05/26 13:13:35;;;;;;;6.40;1.48;;;18.50;98.40;;;;;;4985873;28;20616;-53
2022/05/26 13:16:21;;;;;;;7.28;1.77;;;18.60;98.30;;;;;;4975827;28;20054;-57
2022/05/26 13:18:47;;;;;;;8.57;2.05;;;18.40;98.00;;;;;;4980842;28;20050;-58
2022/05/26 13:21:21;;;;;;;6.22;1.85;;;18.50;98.40;;;;;;4977625;28;20053;-56
2022/05/26 13:23:50;;;;;;;8.65;2.85;;;18.40;97.90;;;;;;4972266;28;20045;-57
2022/05/26 13:26:18;;;;;;;7.72;2.60;;;18.40;98.00;;;;;;4986656;28;20493;-56
2022/05/26 13:28:48;;;;;;;10.80;2.75;;;18.40;99.00;;;;;;4980501;28;20088;-61
2022/05/26 13:34:03;;;;;;;7.35;2.05;;;18.30;99.90;;;;;;4979487;28;20410;-56
2022/05/26 13:36:38;;;;;;;8.30;2.67;;;18.20;99.80;;;;;;4998063;28;20063;-56
2022/05/26 13:39:18;;;;;;;8.45;2.63;;;18.30;99.90;;;;;;4958721;28;20047;-59
2022/05/26 13:41:47;;;;;;;6.15;2.30;;;18.40;99.80;;;;;;4980785;28;20130;-56
2022/05/26 13:44:18;;;;;;;7.90;1.95;;;18.50;99.70;;;;;;4980857;28;20247;-57
2022/05/26 13:46:51;;;;;;;10.65;2.80;;;18.70;99.50;;;;;;4975852;28;20042;-63
2022/05/26 13:49:31;;;;;;;7.57;2.20;;;18.80;98.90;;;;;;4976455;28;24315;-56
2022/05/26 13:51:58;;;;;;;9.40;2.72;;;18.20;98.70;;;;;;5000311;28;20050;-56
2022/05/26 13:54:52;;;;;;;8.73;2.60;;;18.00;99.40;;;;;;4973445;28;20038;-57
2022/05/26 13:57:28;;;;;;;10.27;2.20;;;18.20;99.60;;;;;;4981876;28;20129;-57
2022/05/26 13:59:57;;;;;;;9.40;2.33;;;18.30;99.40;;;;;;4984097;28;20536;-55